Flight Track Log - Related Links

Times and Time Zones

All times are in EDT time to prevent confusion due to time zone crossing. See the UAL4115 flight status page for this flight to view local times or setup timezone preferences in your user account.

Time Position Orientation Groundspeed Altitude Reporting Facility
EDT Latitude Longitude Course Direction KTS MPH feet Rate Location/Type
Sat 07:38:00 AM 20.8542 -103.2208 17° North  Level FlightAware Approximate
Sat 07:39:00 AM 20.9416 -103.1945 12° North  Level FlightAware Approximate
Sat 07:40:00 AM 21.0305 -103.1747 12° North  Level FlightAware Approximate
Sat 07:41:00 AM 21.1182 -103.1495 16° North  Level FlightAware Approximate
Sat 07:42:00 AM 21.2055 -103.1227 16° North  Level FlightAware Approximate
Sat 07:43:00 AM 21.2929 -103.0958 16° North  Level FlightAware Approximate
Sat 07:44:00 AM 21.3808 -103.0715 13° North  Level FlightAware Approximate
Sat 07:45:00 AM 21.4693 -103.0493 13° North  Level FlightAware Approximate
Sat 07:46:00 AM 21.5577 -103.0267 14° North  Level FlightAware Approximate
Sat 07:47:00 AM 21.6458 -103.0027 14° North  Level FlightAware Approximate
Sat 07:48:00 AM 21.7342 -102.9802 10° North  Level FlightAware Approximate
Sat 07:49:00 AM 21.8237 -102.9639 10° North  Level FlightAware Approximate
Sat 07:50:00 AM 21.9123 -102.9439 25° Northeast  Level FlightAware Approximate
Sat 07:51:00 AM 21.9987 -102.9147 15° North  Level FlightAware Approximate
Sat 07:52:00 AM 22.0866 -102.8896 15° North  Level FlightAware Approximate
Sat 07:53:00 AM 22.1745 -102.8651 10° North  Level FlightAware Approximate
Sat 07:54:00 AM 22.2635 -102.8455 17° North  Level FlightAware Approximate
Sat 07:55:00 AM 22.3520 -102.8247 North  Level FlightAware Approximate
Sat 07:56:00 AM 22.4409 -102.8047 15° North  Level FlightAware Approximate
Sat 07:57:00 AM 22.5285 -102.7789 15° North  Level FlightAware Approximate
Sat 07:58:00 AM 22.6162 -102.7531 15° North  Level FlightAware Approximate
Sat 07:59:00 AM 22.7040 -102.7274 15° North  Level FlightAware Approximate
Sat 08:00:00 AM 22.7918 -102.7023 15° North  Level FlightAware Approximate
Sat 08:01:00 AM 22.8810 -102.6838 10° North  Level FlightAware Approximate
Sat 08:02:00 AM 22.9591 -102.6337 31° Northeast  Level FlightAware Approximate
Sat 08:03:00 AM 23.0369 -102.5826 31° Northeast  Level FlightAware Approximate
Sat 08:04:00 AM 23.1147 -102.5315 31° Northeast  Level FlightAware Approximate
Sat 08:05:00 AM 23.1924 -102.4804 31° Northeast  Level FlightAware Approximate
Sat 08:06:00 AM 23.2701 -102.4292 31° Northeast  Level FlightAware Approximate
Sat 08:07:00 AM 23.3478 -102.3779 31° Northeast  Level FlightAware Approximate
Sat 08:08:00 AM 23.4255 -102.3266 31° Northeast  Level FlightAware Approximate
Sat 08:09:00 AM 23.5032 -102.2752 31° Northeast  Level FlightAware Approximate
Sat 08:10:00 AM 23.5809 -102.2237 31° Northeast  Level FlightAware Approximate
Sat 08:11:00 AM 23.6596 -102.1743 29° Northeast  Level FlightAware Approximate
Sat 08:12:00 AM 23.7392 -102.1265 29° Northeast  Level FlightAware Approximate
Sat 08:13:00 AM 23.8181 -102.0773 31° Northeast  Level FlightAware Approximate
Sat 08:14:00 AM 23.8961 -102.0263 31° Northeast  Level FlightAware Approximate
Sat 08:15:00 AM 23.9741 -101.9752 31° Northeast  Level FlightAware Approximate
Sat 08:16:00 AM 24.0520 -101.9241 31° Northeast  Level FlightAware Approximate
Sat 08:17:00 AM 24.1299 -101.8729 31° Northeast  Level FlightAware Approximate
Sat 08:18:00 AM 24.2078 -101.8217 31° Northeast  Level FlightAware Approximate
Sat 08:19:00 AM 24.2857 -101.7704 31° Northeast  Level FlightAware Approximate
Sat 08:20:00 AM 24.3629 -101.7177 32° Northeast  Level FlightAware Approximate
Sat 08:21:00 AM 24.4395 -101.6641 33° Northeast  Level FlightAware Approximate
Sat 08:22:00 AM 24.5164 -101.6110 32° Northeast  Level FlightAware Approximate
Sat 08:23:00 AM 24.5938 -101.5586 32° Northeast  Level FlightAware Approximate
Sat 08:24:00 AM 24.6712 -101.5062 32° Northeast  Level FlightAware Approximate
Sat 08:25:00 AM 24.7485 -101.4537 32° Northeast  Level FlightAware Approximate
Sat 08:26:00 AM 24.8258 -101.4011 32° Northeast  Level FlightAware Approximate
Sat 08:27:00 AM 24.9032 -101.3485 32° Northeast  Level FlightAware Approximate
Sat 08:28:00 AM 24.9804 -101.2958 32° Northeast  Level FlightAware Approximate
Sat 08:29:00 AM 25.0577 -101.2431 32° Northeast  Level FlightAware Approximate
Sat 08:30:00 AM 25.1350 -101.1903 32° Northeast  Level FlightAware Approximate
Sat 08:30:29 AM 25.6019 -100.0311 32° Northeast 431 496 37,000  Level Houston Center
Sat 08:31:00 AM 25.2122 -101.1374 32° Northeast  Level FlightAware Approximate
Sat 08:31:30 AM 25.6958 -99.9475 39° Northeast 431 496 37,000  Level Houston Center
Sat 08:32:00 AM 25.2894 -101.0844 32° Northeast  Level FlightAware Approximate
Sat 08:32:31 AM 25.7886 -99.8658 38° Northeast 430 495 37,000  Level Houston Center
Sat 08:33:00 AM 25.3666 -101.0314 32° Northeast  Level FlightAware Approximate
Sat 08:33:32 AM 25.8828 -99.7839 38° Northeast 430 495 37,000  Level Houston Center
Sat 08:34:00 AM 25.4438 -100.9783 32° Northeast  Level FlightAware Approximate
Sat 08:34:34 AM 25.9950 -99.6856 38° Northeast 429 494 37,000  Level Houston Center
Sat 08:35:00 AM 25.5210 -100.9252 32° Northeast  Level FlightAware Approximate
Sat 08:35:35 AM 26.0886 -99.6042 38° Northeast 428 493 37,000  Level Houston Center
Sat 08:36:36 AM 26.1806 -99.5206 39° Northeast 428 493 37,000  Level Houston Center
Sat 08:37:38 AM 26.2725 -99.4375 39° Northeast 427 491 37,000  Level Houston Center
Sat 08:38:39 AM 26.3631 -99.3503 41° Northeast 428 493 37,000  Level Houston Center
Sat 08:39:40 AM 26.4525 -99.2625 41° Northeast 430 495 37,000  Level Houston Center
Sat 08:40:42 AM 26.5428 -99.1778 40° Northeast 426 490 37,000  Level Houston Center
Sat 08:41:43 AM 26.6314 -99.0908 41° Northeast 426 490 37,000  Level Houston Center
Sat 08:42:44 AM 26.7381 -98.9875 41° Northeast 423 487 37,000  Level Houston Center
Sat 08:43:46 AM 26.8267 -98.9006 41° Northeast 425 489 37,000  Level Houston Center
Sat 08:44:47 AM 26.9164 -98.8150 40° Northeast 426 490 37,000  Level Houston Center
Sat 08:45:48 AM 27.0047 -98.7283 41° Northeast 425 489 37,000  Level Houston Center
Sat 08:46:50 AM 27.0933 -98.6411 41° Northeast 426 490 37,000  Level Houston Center
Sat 08:47:51 AM 27.1808 -98.5536 42° Northeast 425 489 37,000 -49 Level Houston Center
Sat 08:48:52 AM 27.2694 -98.4675 41° Northeast 425 489 36,900  Descending Houston Center
Sat 08:49:54 AM 27.3758 -98.3631 41° Northeast 425 489 37,000 49 Climbing Houston Center
Sat 08:50:55 AM 27.4642 -98.2753 41° Northeast 426 490 37,000  Level Houston Center
Sat 08:51:57 AM 27.5547 -98.1881 40° Northeast 428 493 37,000  Level Houston Center
Sat 08:52:58 AM 27.6433 -98.0989 42° Northeast 429 494 37,000  Level Houston Center
Sat 08:53:59 AM 27.7333 -98.0083 42° Northeast 434 499 37,000  Level Houston Center
Sat 08:55:01 AM 27.8239 -97.9203 41° Northeast 432 497 37,000  Level Houston Center
Sat 08:56:02 AM 27.9133 -97.8300 42° Northeast 433 498 37,000  Level Houston Center
Sat 08:57:04 AM 28.0194 -97.7250 41° Northeast 431 496 37,000  Level Houston Center
Sat 08:58:05 AM 28.1100 -97.6353 41° Northeast 433 498 37,000  Level Houston Center
Sat 08:59:07 AM 28.1994 -97.5447 42° Northeast 432 497 37,000  Level Houston Center
Sat 09:00:08 AM 28.2894 -97.4542 42° Northeast 433 498 37,000  Level Houston Center
Sat 09:01:09 AM 28.3786 -97.3636 42° Northeast 431 496 37,000  Level Houston Center
Sat 09:02:11 AM 28.4692 -97.2731 41° Northeast 432 497 37,000  Level Houston Center
Sat 09:03:12 AM 28.5589 -97.1811 42° Northeast 435 501 37,000 -878 Level Houston Center
Sat 09:04:14 AM 28.6478 -97.0911 42° Northeast 431 496 35,200 -2,390 Descending Houston Center
Sat 09:05:15 AM 28.7586 -96.9792 42° Northeast 442 509 32,100 -2,732 Descending Houston Center
Sat 09:06:17 AM 28.8517 -96.8825 42° Northeast 453 521 29,600 -2,439 Descending Houston Center
Sat 09:07:18 AM 28.9467 -96.7858 42° Northeast 460 529 27,100 -2,439 Descending Houston Center
Sat 09:08:20 AM 29.0414 -96.6889 42° Northeast 461 531 24,600 -2,439 Descending Houston Center
Sat 09:09:21 AM 29.1331 -96.5956 42° Northeast 450 518 22,100 -2,459 Descending Houston Center
Sat 09:10:22 AM 29.2206 -96.5053 42° Northeast 431 496 19,600 -2,634 Descending Houston Center
Sat 09:11:24 AM 29.3247 -96.3981 42° Northeast 425 489 16,700 -2,683 Descending Houston Center
Sat 09:12:25 AM 29.4058 -96.3125 43° Northeast 403 464 14,100 -2,195 Descending Houston Center
Sat 09:13:27 AM 29.4828 -96.2325 42° Northeast 380 437 12,200 -1,073 Descending Houston Center
Sat 09:14:28 AM 29.5506 -96.1583 44° Northeast 344 396 11,900 -148 Descending Houston Center
Sat 09:15:29 AM 29.5997 -96.0608 60° Northeast 355 409 11,900 -585 Level Houston Center
Sat 09:16:31 AM 29.6456 -95.9694 60° Northeast 349 402 10,700 -1,171 Descending Houston Center
Sat 09:17:32 AM 29.6897 -95.8819 60° Northeast 321 369 9,500 -1,756 Descending Houston Center
Sat 09:18:34 AM 29.7378 -95.7856 60° Northeast 293 337 7,100 -1,707 Descending Houston Center
Sat 09:19:35 AM 29.7769 -95.7056 61° Northeast 288 331 6,000 -541 Descending Houston Center
Sat 09:20:36 AM 29.8178 -95.6267 59° Northeast 287 330 6,000  Level Houston Center
Sat 09:21:38 AM 29.8575 -95.5475 60° Northeast 285 328 6,000  Level Houston Center
Sat 09:22:39 AM 29.8956 -95.4653 62° Northeast 289 333 6,000  Level Houston Center
Sat 09:23:41 AM 29.8967 -95.3697 89° East 297 342 6,000  Level Houston Center
Sat 09:24:42 AM 29.8967 -95.2731 90° East 299 344 6,000 -590 Level Houston Center
Sat 09:25:43 AM 29.8967 -95.1786 90° East 295 339 4,800 -1,854 Descending Houston Center
Sat 09:26:45 AM 29.9500 -95.1269 40° Northeast 290 334 2,200 -1,366 Descending Houston Center
Sat 09:27:46 AM 29.9769 -95.1814 300° West 252 290 2,000 -634 Descending Houston Center
Sat 09:28:48 AM 29.9783 -95.2550 271° West 212 244 900 -878 Descending Houston Center
Sat 09:29:49 AM 29.9781 -95.2981 270° West 167 192 200 -689 Descending Houston Center

Login

Don't have an account? Register now (free) for customized features, flight alerts, and more!